createdAt,value
2022-11-28T00:01:30.661Z,3.55
2022-11-28T00:03:58.548Z,3.95
2022-11-28T00:06:27.375Z,4.22
2022-11-28T00:08:56.034Z,3.67
2022-11-28T00:11:23.834Z,3.67
2022-11-28T00:13:51.701Z,4.03
2022-11-28T00:16:21.889Z,3.80
2022-11-28T00:18:52.294Z,4.18
2022-11-28T00:21:20.667Z,3.20
2022-11-28T00:23:49.593Z,4.13
2022-11-28T00:26:20.505Z,3.50
2022-11-28T00:28:48.441Z,4.03
2022-11-28T00:31:17.535Z,3.75
2022-11-28T00:33:45.495Z,3.55
2022-11-28T00:36:15.615Z,4.22
2022-11-28T00:38:43.576Z,3.53
2022-11-28T00:41:14.461Z,3.65
2022-11-28T00:43:43.262Z,4.30
2022-11-28T00:46:11.511Z,3.42
2022-11-28T00:48:39.477Z,3.97
2022-11-28T00:51:08.142Z,3.88
2022-11-28T00:53:38.106Z,3.80
2022-11-28T00:56:07.623Z,3.47
2022-11-28T00:58:36.878Z,4.25
2022-11-28T01:01:09.336Z,3.90
2022-11-28T01:03:37.251Z,3.65
2022-11-28T01:06:05.453Z,3.65
2022-11-28T01:08:33.447Z,3.70
2022-11-28T01:11:02.987Z,3.40
2022-11-28T01:13:31.230Z,3.95
2022-11-28T01:15:59.537Z,3.63
2022-11-28T01:18:27.477Z,4.20
2022-11-28T01:20:55.331Z,3.72
2022-11-28T01:23:23.203Z,3.85
2022-11-28T01:25:51.011Z,4.07
2022-11-28T01:28:20.266Z,4.07
2022-11-28T01:30:48.108Z,3.97
2022-11-28T01:33:15.931Z,3.80
2022-11-28T01:35:43.721Z,3.60
2022-11-28T01:38:11.557Z,3.80
2022-11-28T01:40:45.928Z,3.80
2022-11-28T01:43:13.766Z,3.92
2022-11-28T01:45:43.493Z,3.83
2022-11-28T01:48:13.946Z,3.40
2022-11-28T01:50:43.532Z,3.80
2022-11-28T01:53:12.011Z,3.75
2022-11-28T01:55:43.939Z,4.07
2022-11-28T01:58:13.081Z,3.80
2022-11-28T02:00:42.306Z,3.63
2022-11-28T02:03:15.531Z,4.13
2022-11-28T02:05:43.496Z,3.83
2022-11-28T02:08:11.296Z,3.95
2022-11-28T02:11:05.758Z,3.90
2022-11-28T02:13:40.941Z,3.80
2022-11-28T02:16:32.101Z,3.70
2022-11-28T02:19:23.573Z,3.78
2022-11-28T02:22:02.094Z,3.60
2022-11-28T02:25:17.323Z,3.72
2022-11-28T02:28:30.763Z,4.15
2022-11-28T02:31:07.701Z,4.13
2022-11-28T02:33:39.500Z,3.63
2022-11-28T02:36:13.775Z,4.10
2022-11-28T02:38:58.845Z,4.10
2022-11-28T02:41:34.387Z,4.30
2022-11-28T02:44:11.759Z,3.70
2022-11-28T02:46:48.711Z,4.57
2022-11-28T02:49:22.756Z,4.13
2022-11-28T02:51:56.435Z,4.20
2022-11-28T02:54:26.456Z,4.28
2022-11-28T02:56:55.885Z,4.30
2022-11-28T02:59:45.528Z,4.20
2022-11-28T03:02:18.499Z,4.28
2022-11-28T03:07:32.255Z,3.50
2022-11-28T03:10:22.854Z,4.28
2022-11-28T03:12:59.038Z,4.55
2022-11-28T03:15:34.546Z,3.92
2022-11-28T03:18:12.623Z,4.43
2022-11-28T03:20:48.752Z,4.03
2022-11-28T03:23:20.727Z,4.75
2022-11-28T03:25:58.899Z,3.92
2022-11-28T03:28:32.407Z,3.92
2022-11-28T03:31:03.769Z,4.18
2022-11-28T03:33:35.247Z,4.28
2022-11-28T03:36:09.485Z,4.40
2022-11-28T03:38:42.908Z,4.35
2022-11-28T03:41:16.187Z,4.72
2022-11-28T03:43:50.146Z,4.40
2022-11-28T03:46:21.456Z,4.60
2022-11-28T03:48:53.600Z,4.68
2022-11-28T03:51:29.655Z,4.38
2022-11-28T03:54:02.112Z,4.32
2022-11-28T03:56:40.598Z,4.18
2022-11-28T03:59:14.490Z,4.10
2022-11-28T04:01:52.411Z,3.88
2022-11-28T04:04:25.943Z,4.13
2022-11-28T04:06:59.595Z,4.47
2022-11-28T04:09:40.646Z,4.28
2022-11-28T04:12:15.479Z,4.80
2022-11-28T04:14:48.585Z,4.00
2022-11-28T04:17:20.714Z,4.57
2022-11-28T04:19:52.471Z,4.00
2022-11-28T04:22:25.470Z,4.50
2022-11-28T04:27:28.750Z,3.95
2022-11-28T04:30:00.517Z,4.00
2022-11-28T04:32:32.411Z,4.65
2022-11-28T04:35:04.904Z,3.90
2022-11-28T04:37:36.990Z,4.00
2022-11-28T04:40:06.824Z,4.00
2022-11-28T04:42:41.050Z,3.80
2022-11-28T04:45:12.813Z,4.30
2022-11-28T04:47:40.762Z,4.10
2022-11-28T04:50:10.172Z,4.45
2022-11-28T04:52:47.813Z,5.03
2022-11-28T04:55:25.634Z,4.60
2022-11-28T04:57:58.493Z,4.75
2022-11-28T05:00:28.165Z,4.25
2022-11-28T05:02:57.897Z,4.30
2022-11-28T05:05:28.426Z,5.05
2022-11-28T05:07:59.644Z,4.70
2022-11-28T05:10:27.603Z,4.28
2022-11-28T05:12:55.604Z,4.80
2022-11-28T05:15:23.537Z,4.38
2022-11-28T05:17:51.339Z,4.85
2022-11-28T05:20:19.475Z,4.43
2022-11-28T05:22:47.458Z,4.30
2022-11-28T05:25:17.478Z,4.63
2022-11-28T05:27:45.287Z,4.70
2022-11-28T05:30:14.965Z,4.82
2022-11-28T05:32:42.893Z,4.80
2022-11-28T05:35:11.065Z,4.93
2022-11-28T05:37:39.170Z,4.07
2022-11-28T05:40:08.130Z,4.88
2022-11-28T05:42:37.429Z,4.75
2022-11-28T05:45:05.851Z,4.68
2022-11-28T05:47:34.362Z,5.30
2022-11-28T05:50:02.366Z,4.72
2022-11-28T05:52:32.202Z,4.30
2022-11-28T05:55:01.487Z,4.93
2022-11-28T05:57:31.977Z,4.68
2022-11-28T06:00:01.166Z,4.65
2022-11-28T06:02:29.014Z,4.65
2022-11-28T06:04:57.045Z,5.22
2022-11-28T06:07:24.900Z,4.63
2022-11-28T06:09:52.874Z,4.70
2022-11-28T06:12:20.661Z,5.18
2022-11-28T06:14:48.790Z,4.90
2022-11-28T06:17:17.976Z,5.53
2022-11-28T06:19:46.137Z,4.95
2022-11-28T06:22:14.028Z,5.15
2022-11-28T06:24:41.984Z,4.53
2022-11-28T06:27:09.868Z,4.50
2022-11-28T06:29:37.680Z,4.68
2022-11-28T06:32:08.068Z,5.30
2022-11-28T06:34:40.228Z,4.72
2022-11-28T06:37:08.683Z,4.85
2022-11-28T06:39:36.619Z,5.50
2022-11-28T06:42:04.624Z,5.18
2022-11-28T06:44:32.598Z,4.75
2022-11-28T06:47:00.465Z,5.10
2022-11-28T06:49:28.314Z,4.75
2022-11-28T06:51:57.528Z,4.80
2022-11-28T06:54:25.284Z,5.03
2022-11-28T06:56:53.118Z,4.68
2022-11-28T06:59:20.914Z,4.82
2022-11-28T07:01:49.428Z,5.05
2022-11-28T07:04:17.315Z,5.00
2022-11-28T07:06:45.728Z,5.05
2022-11-28T07:09:14.836Z,4.75
2022-11-28T07:11:43.443Z,5.38
2022-11-28T07:14:11.487Z,5.05
2022-11-28T07:16:39.481Z,5.00
2022-11-28T07:19:07.343Z,5.03
2022-11-28T07:21:35.456Z,4.90
2022-11-28T07:24:03.235Z,5.22
2022-11-28T07:26:33.623Z,5.05
2022-11-28T07:29:01.411Z,5.20
2022-11-28T07:31:32.229Z,5.72
2022-11-28T07:34:01.857Z,4.78
2022-11-28T07:36:30.347Z,5.05
2022-11-28T07:39:00.397Z,5.13
2022-11-28T07:41:28.775Z,4.93
2022-11-28T07:44:01.150Z,5.07
2022-11-28T07:46:31.164Z,5.18
2022-11-28T07:48:59.129Z,5.03
2022-11-28T07:51:29.251Z,5.28
2022-11-28T07:53:57.492Z,4.70
2022-11-28T07:56:39.327Z,5.80
2022-11-28T07:59:13.822Z,5.65
2022-11-28T08:01:41.682Z,5.30
2022-11-28T08:04:10.920Z,5.10
2022-11-28T08:06:41.186Z,4.88
2022-11-28T08:09:09.449Z,4.95
2022-11-28T08:11:37.586Z,4.68
2022-11-28T08:14:05.733Z,4.70
2022-11-28T08:16:35.136Z,5.20
2022-11-28T08:19:03.830Z,5.15
2022-11-28T08:21:33.443Z,5.05
2022-11-28T08:24:02.783Z,5.05
2022-11-28T08:26:32.085Z,5.05
2022-11-28T08:29:00.398Z,5.30
2022-11-28T08:31:30.223Z,5.75
2022-11-28T08:34:01.492Z,5.60
2022-11-28T08:36:29.896Z,5.90
2022-11-28T08:39:16.535Z,6.00
2022-11-28T08:41:46.392Z,6.47
2022-11-28T08:44:14.561Z,7.15
2022-11-28T08:46:42.630Z,6.60
2022-11-28T08:49:11.940Z,6.90
2022-11-28T08:51:40.075Z,6.65
2022-11-28T08:54:07.909Z,7.30
2022-11-28T08:56:36.194Z,7.28
2022-11-28T08:59:04.647Z,7.28
2022-11-28T09:01:32.553Z,6.95
2022-11-28T09:04:00.560Z,7.22
2022-11-28T09:06:29.852Z,7.13
2022-11-28T09:08:58.889Z,7.40
2022-11-28T09:11:26.825Z,7.55
2022-11-28T09:13:55.709Z,7.07
2022-11-28T09:16:23.760Z,6.93
2022-11-28T09:18:52.420Z,6.88
2022-11-28T09:21:20.248Z,7.30
2022-11-28T09:23:49.428Z,7.55
2022-11-28T09:26:19.459Z,7.95
2022-11-28T09:28:47.898Z,7.80
2022-11-28T09:31:17.224Z,7.85
2022-11-28T09:33:45.752Z,8.13
2022-11-28T09:36:18.686Z,8.57
2022-11-28T09:41:50.627Z,6.63
2022-11-28T09:44:23.923Z,7.22
2022-11-28T09:46:55.817Z,7.22
2022-11-28T09:49:36.724Z,7.30
2022-11-28T09:52:18.882Z,6.32
2022-11-28T09:54:53.407Z,6.65
2022-11-28T09:57:31.016Z,6.50
2022-11-28T10:00:11.175Z,5.97
2022-11-28T10:02:46.998Z,5.82
2022-11-28T10:05:24.357Z,6.10
2022-11-28T10:08:11.683Z,6.35
2022-11-28T10:10:48.846Z,5.18
2022-11-28T10:13:22.464Z,5.85
2022-11-28T10:15:58.670Z,4.97
2022-11-28T10:18:36.277Z,4.72
2022-11-28T10:21:11.327Z,5.43
2022-11-28T10:23:43.429Z,5.20
2022-11-28T10:26:19.300Z,5.70
2022-11-28T10:28:51.582Z,5.38
2022-11-28T10:31:27.870Z,5.43
2022-11-28T10:34:02.143Z,5.63
2022-11-28T10:36:35.101Z,5.45
2022-11-28T10:41:45.479Z,5.40
2022-11-28T10:44:21.598Z,5.38
2022-11-28T10:46:59.247Z,5.25
2022-11-28T10:49:36.601Z,5.40
2022-11-28T10:52:12.942Z,5.43
2022-11-28T10:54:57.476Z,5.68
2022-11-28T10:57:31.432Z,5.00
2022-11-28T11:00:08.315Z,5.38
2022-11-28T11:02:41.354Z,5.70
2022-11-28T11:07:47.977Z,4.85
2022-11-28T11:10:18.019Z,5.65
2022-11-28T11:12:46.647Z,4.93
2022-11-28T11:15:22.603Z,5.50
2022-11-28T11:17:51.823Z,5.55
2022-11-28T11:20:36.315Z,5.40
2022-11-28T11:23:14.011Z,6.30
2022-11-28T11:25:50.775Z,5.45
2022-11-28T11:28:41.709Z,5.47
2022-11-28T11:31:20.521Z,5.47
2022-11-28T11:33:49.888Z,6.47
2022-11-28T11:36:25.983Z,5.65
2022-11-28T11:39:05.039Z,6.05
2022-11-28T11:41:34.296Z,5.55
2022-11-28T11:44:30.245Z,6.00
2022-11-28T11:47:03.512Z,5.75
2022-11-28T11:49:33.410Z,4.65
2022-11-28T11:52:03.866Z,5.80
2022-11-28T11:54:31.767Z,6.18
2022-11-28T11:57:30.821Z,6.10
2022-11-28T11:59:52.647Z,6.18
2022-11-28T12:02:28.901Z,5.85
2022-11-28T12:05:03.369Z,6.07
2022-11-28T12:07:43.089Z,5.95
2022-11-28T12:10:16.413Z,5.97
2022-11-28T12:12:44.250Z,5.57
2022-11-28T12:15:22.754Z,5.93
2022-11-28T12:18:07.628Z,5.45
2022-11-28T12:20:54.573Z,5.63
2022-11-28T12:23:50.685Z,5.85
2022-11-28T12:26:24.462Z,5.63
2022-11-28T12:29:06.962Z,5.90
2022-11-28T12:31:46.779Z,5.78
2022-11-28T12:34:29.033Z,5.28
2022-11-28T12:37:07.460Z,5.22
2022-11-28T12:39:46.449Z,5.38
2022-11-28T12:42:39.881Z,6.25
2022-11-28T12:45:31.529Z,5.25
2022-11-28T12:48:09.036Z,5.47
2022-11-28T12:50:41.117Z,4.93
2022-11-28T12:53:30.765Z,5.37
2022-11-28T12:56:10.987Z,5.30
2022-11-28T12:58:44.840Z,5.35
2022-11-28T13:01:29.650Z,5.32
2022-11-28T13:04:07.039Z,5.68
2022-11-28T13:06:42.107Z,5.15
2022-11-28T13:09:28.090Z,5.40
2022-11-28T13:12:08.232Z,5.10
2022-11-28T13:14:47.638Z,5.55
2022-11-28T13:17:30.314Z,5.47
2022-11-28T13:20:08.754Z,4.83
2022-11-28T13:22:49.567Z,5.30
2022-11-28T13:25:23.689Z,5.45
2022-11-28T13:28:01.095Z,5.82
2022-11-28T13:30:33.317Z,5.72
2022-11-28T13:33:08.588Z,5.53
2022-11-28T13:35:37.167Z,5.10
2022-11-28T13:41:22.910Z,5.50
2022-11-28T13:44:04.838Z,5.47
2022-11-28T13:46:34.782Z,4.88
2022-11-28T13:49:15.432Z,4.85
2022-11-28T13:51:43.769Z,4.88
2022-11-28T13:54:52.582Z,4.40
2022-11-28T13:57:29.992Z,4.82
2022-11-28T14:00:04.497Z,5.10
2022-11-28T14:02:45.917Z,4.70
2022-11-28T14:05:29.839Z,5.07
2022-11-28T14:07:58.606Z,4.85
2022-11-28T14:10:41.537Z,5.32
2022-11-28T14:13:23.188Z,5.32
2022-11-28T14:16:04.795Z,5.28
2022-11-28T14:18:56.730Z,5.18
2022-11-28T14:21:33.763Z,5.07
2022-11-28T14:24:14.036Z,4.82
2022-11-28T14:26:45.065Z,5.03
2022-11-28T14:29:23.966Z,5.35
2022-11-28T14:32:22.210Z,5.32
2022-11-28T14:34:45.642Z,5.18
2022-11-28T14:37:57.566Z,4.90
2022-11-28T14:41:05.652Z,4.95
2022-11-28T14:43:37.287Z,4.88
2022-11-28T14:46:26.517Z,5.45
2022-11-28T14:49:31.120Z,4.93
2022-11-28T14:52:38.965Z,5.40
2022-11-28T14:55:18.670Z,4.57
2022-11-28T14:57:59.026Z,5.47
2022-11-28T15:00:32.887Z,5.65
2022-11-28T15:03:13.697Z,5.57
2022-11-28T15:05:47.118Z,5.05
2022-11-28T15:08:37.339Z,5.00
2022-11-28T15:11:16.912Z,5.43
2022-11-28T15:13:59.126Z,5.60
2022-11-28T15:16:30.829Z,5.50
2022-11-28T15:19:06.073Z,5.45
2022-11-28T15:21:44.645Z,5.45
2022-11-28T15:24:23.928Z,5.78
2022-11-28T15:26:57.147Z,5.15
2022-11-28T15:29:27.888Z,4.85
2022-11-28T15:31:58.985Z,5.40
2022-11-28T15:34:29.987Z,5.63
2022-11-28T15:37:00.571Z,5.78
2022-11-28T15:39:34.935Z,5.65
2022-11-28T15:42:05.784Z,6.07
2022-11-28T15:44:34.064Z,5.78
2022-11-28T15:47:03.748Z,5.45
2022-11-28T15:49:35.564Z,5.72
2022-11-28T15:52:05.939Z,5.63
2022-11-28T15:54:41.205Z,6.20
2022-11-28T15:57:20.275Z,6.55
2022-11-28T15:59:48.258Z,5.55
2022-11-28T16:02:23.875Z,5.60
2022-11-28T16:04:56.151Z,6.30
2022-11-28T16:07:24.100Z,5.80
2022-11-28T16:09:59.441Z,6.60
2022-11-28T16:12:28.804Z,6.15
2022-11-28T16:15:01.708Z,6.03
2022-11-28T16:17:34.034Z,6.10
2022-11-28T16:20:04.538Z,6.50
2022-11-28T16:22:36.596Z,6.38
2022-11-28T16:25:21.608Z,5.93
2022-11-28T16:27:53.117Z,6.07
2022-11-28T16:30:38.431Z,6.13
2022-11-28T16:33:39.094Z,5.57
2022-11-28T16:36:21.536Z,5.43
2022-11-28T16:38:51.441Z,5.68
2022-11-28T16:41:23.348Z,5.78
2022-11-28T16:43:55.462Z,6.22
2022-11-28T16:46:25.467Z,5.70
2022-11-28T16:48:58.590Z,6.07
2022-11-28T16:51:38.193Z,5.80
2022-11-28T16:54:28.777Z,5.63
2022-11-28T16:56:58.488Z,6.13
2022-11-28T16:59:26.862Z,5.80
2022-11-28T17:01:55.621Z,6.07
2022-11-28T17:04:26.588Z,5.85
2022-11-28T17:06:56.376Z,6.70
2022-11-28T17:09:24.381Z,6.68
2022-11-28T17:11:57.408Z,6.40
2022-11-28T17:14:25.384Z,5.72
2022-11-28T17:16:53.245Z,6.50
2022-11-28T17:19:21.090Z,5.65
2022-11-28T17:21:52.931Z,6.38
2022-11-28T17:24:24.834Z,6.35
2022-11-28T17:26:54.179Z,6.70
2022-11-28T17:29:22.906Z,6.18
2022-11-28T17:31:50.851Z,6.22
2022-11-28T17:34:20.460Z,6.72
2022-11-28T17:36:48.737Z,6.15
2022-11-28T17:39:18.827Z,5.93
2022-11-28T17:41:47.840Z,6.32
2022-11-28T17:44:18.899Z,5.60
2022-11-28T17:46:46.912Z,6.28
2022-11-28T17:49:15.524Z,6.10
2022-11-28T17:51:44.314Z,6.10
2022-11-28T17:54:14.007Z,5.38
2022-11-28T17:56:43.619Z,6.00
2022-11-28T17:59:13.204Z,5.70
2022-11-28T18:01:41.800Z,5.88
2022-11-28T18:04:09.731Z,5.70
2022-11-28T18:06:37.844Z,5.65
2022-11-28T18:09:11.738Z,6.60
2022-11-28T18:11:42.457Z,5.95
2022-11-28T18:14:12.007Z,5.85
2022-11-28T18:16:42.940Z,5.78
2022-11-28T18:19:14.221Z,5.95
2022-11-28T18:21:42.025Z,6.30
2022-11-28T18:24:10.424Z,6.22
2022-11-28T18:26:38.586Z,6.50
2022-11-28T18:29:09.199Z,6.85
2022-11-28T18:31:39.813Z,5.93
2022-11-28T18:34:09.549Z,6.00
2022-11-28T18:36:39.074Z,6.22
2022-11-28T18:39:12.208Z,6.13
2022-11-28T18:41:40.930Z,6.30
2022-11-28T18:44:09.431Z,6.00
2022-11-28T18:46:39.605Z,5.85
2022-11-28T18:49:08.170Z,5.70
2022-11-28T18:51:36.703Z,6.30
2022-11-28T18:54:06.252Z,6.18
2022-11-28T18:56:35.752Z,6.55
2022-11-28T18:59:04.408Z,6.90
2022-11-28T19:01:36.584Z,6.20
2022-11-28T19:06:38.819Z,5.85
2022-11-28T19:09:09.295Z,5.75
2022-11-28T19:11:39.732Z,6.53
2022-11-28T19:14:09.214Z,6.40
2022-11-28T19:16:38.581Z,7.40
2022-11-28T19:19:07.921Z,6.82
2022-11-28T19:21:38.414Z,6.55
2022-11-28T19:24:08.814Z,6.40
2022-11-28T19:26:38.079Z,6.85
2022-11-28T19:29:06.807Z,7.28
2022-11-28T19:31:40.284Z,7.47
2022-11-28T19:34:12.423Z,7.43
2022-11-28T19:36:43.738Z,7.00
2022-11-28T19:39:19.736Z,6.05
2022-11-28T19:41:48.575Z,6.85
2022-11-28T19:44:17.120Z,7.10
2022-11-28T19:46:45.713Z,7.40
2022-11-28T19:49:19.365Z,7.30
2022-11-28T19:51:48.336Z,7.20
2022-11-28T19:54:18.984Z,6.55
2022-11-28T19:56:49.820Z,6.72
2022-11-28T19:59:20.562Z,6.90
2022-11-28T20:01:49.941Z,6.57
2022-11-28T20:04:20.254Z,6.70
2022-11-28T20:06:48.219Z,6.88
2022-11-28T20:09:17.923Z,9.23
2022-11-28T20:11:48.093Z,7.50
2022-11-28T20:14:18.080Z,7.35
2022-11-28T20:16:47.046Z,7.20
2022-11-28T20:19:17.713Z,6.55
2022-11-28T20:21:47.589Z,6.97
2022-11-28T20:24:16.493Z,6.82
2022-11-28T20:26:46.539Z,7.07
2022-11-28T20:29:16.575Z,6.80
2022-11-28T20:31:47.834Z,6.85
2022-11-28T20:34:22.198Z,6.45
2022-11-28T20:36:53.894Z,6.20
2022-11-28T20:39:21.993Z,6.05
2022-11-28T20:41:49.810Z,6.70
2022-11-28T20:44:18.856Z,7.20
2022-11-28T20:46:49.496Z,6.82
2022-11-28T20:49:20.208Z,7.20
2022-11-28T20:51:50.272Z,6.63
2022-11-28T20:54:20.037Z,6.53
2022-11-28T20:59:36.634Z,6.22
2022-11-28T21:02:04.650Z,6.03
2022-11-28T21:04:32.746Z,6.35
2022-11-28T21:07:00.584Z,6.70
2022-11-28T21:09:29.834Z,6.43
2022-11-28T21:11:59.249Z,6.30
2022-11-28T21:14:33.708Z,6.07
2022-11-28T21:17:01.674Z,6.60
2022-11-28T21:19:29.813Z,6.90
2022-11-28T21:21:57.737Z,6.90
2022-11-28T21:24:25.579Z,6.30
2022-11-28T21:26:55.057Z,6.13
2022-11-28T21:29:24.625Z,6.22
2022-11-28T21:31:53.097Z,6.22
2022-11-28T21:34:23.565Z,6.22
2022-11-28T21:36:51.674Z,6.13
2022-11-28T21:39:21.901Z,7.00
2022-11-28T21:41:50.923Z,6.03
2022-11-28T21:44:20.347Z,6.00
2022-11-28T21:46:48.286Z,6.45
2022-11-28T21:49:17.054Z,6.32
2022-11-28T21:51:44.994Z,7.20
2022-11-28T21:54:13.429Z,6.15
2022-11-28T21:56:41.881Z,6.75
2022-11-28T21:59:09.917Z,5.80
2022-11-28T22:01:40.269Z,6.78
2022-11-28T22:04:11.013Z,6.85
2022-11-28T22:06:42.491Z,6.70
2022-11-28T22:09:10.611Z,6.15
2022-11-28T22:11:40.649Z,6.60
2022-11-28T22:14:09.105Z,6.68
2022-11-28T22:16:39.542Z,6.63
2022-11-28T22:19:07.533Z,6.82
2022-11-28T22:21:55.773Z,6.90
2022-11-28T22:24:24.206Z,6.70
2022-11-28T22:26:52.096Z,6.93
2022-11-28T22:29:20.110Z,6.60
2022-11-28T22:31:51.220Z,6.80
2022-11-28T22:34:19.504Z,6.43
2022-11-28T22:36:47.371Z,7.10
2022-11-28T22:39:15.381Z,6.90
2022-11-28T22:41:43.628Z,7.30
2022-11-28T22:44:12.508Z,6.75
2022-11-28T22:46:43.125Z,6.40
2022-11-28T22:49:12.555Z,7.00
2022-11-28T22:51:42.066Z,6.63
2022-11-28T22:54:12.970Z,6.78
2022-11-28T22:56:43.267Z,6.35
2022-11-28T22:59:13.193Z,7.15
2022-11-28T23:01:46.265Z,6.03
2022-11-28T23:06:46.740Z,6.88
2022-11-28T23:09:15.090Z,6.40
2022-11-28T23:11:44.943Z,6.97
2022-11-28T23:14:15.011Z,6.60
2022-11-28T23:16:45.071Z,6.60
2022-11-28T23:19:16.863Z,6.97
2022-11-28T23:21:46.649Z,6.65
2022-11-28T23:24:15.561Z,7.20
2022-11-28T23:26:48.720Z,6.35
2022-11-28T23:29:17.773Z,6.53
2022-11-28T23:31:47.278Z,7.05
2022-11-28T23:34:17.172Z,6.35
2022-11-28T23:36:46.618Z,6.25
2022-11-28T23:39:19.479Z,6.67
2022-11-28T23:41:47.677Z,6.75
2022-11-28T23:44:16.928Z,6.65
2022-11-28T23:46:45.280Z,7.93
2022-11-28T23:49:13.566Z,7.05
2022-11-28T23:51:43.190Z,6.35
2022-11-28T23:54:14.199Z,7.07
2022-11-28T23:56:44.334Z,6.22
2022-11-28T23:59:15.457Z,6.70
